sensor_id;sensor_type;location;lat;lon;timestamp;pressure;altitude;pressure_sealevel;temperature;humidity
20955;BME280;10636;19.390;-99.256;2024-02-04T00:00:11;77350.09;;;24.23;20.59
20955;BME280;10636;19.390;-99.256;2024-02-04T00:02:40;77354.22;;;24.26;20.28
20955;BME280;10636;19.390;-99.256;2024-02-04T00:05:08;77354.28;;;24.28;20.34
20955;BME280;10636;19.390;-99.256;2024-02-04T00:07:39;77357.78;;;24.33;20.23
20955;BME280;10636;19.390;-99.256;2024-02-04T00:10:08;77355.13;;;24.35;19.87
20955;BME280;10636;19.390;-99.256;2024-02-04T00:12:36;77374.00;;;24.37;20.32
20955;BME280;10636;19.390;-99.256;2024-02-04T00:15:06;77360.59;;;24.37;20.11
20955;BME280;10636;19.390;-99.256;2024-02-04T00:17:34;77368.66;;;24.37;20.53
20955;BME280;10636;19.390;-99.256;2024-02-04T00:20:03;77367.25;;;24.36;20.26
20955;BME280;10636;19.390;-99.256;2024-02-04T00:22:32;77372.69;;;24.38;20.81
20955;BME280;10636;19.390;-99.256;2024-02-04T00:25:03;77384.72;;;24.37;20.00
20955;BME280;10636;19.390;-99.256;2024-02-04T00:27:32;77387.47;;;24.39;20.55
20955;BME280;10636;19.390;-99.256;2024-02-04T00:30:01;77392.75;;;24.37;20.63
20955;BME280;10636;19.390;-99.256;2024-02-04T00:32:30;77395.44;;;24.37;20.50
20955;BME280;10636;19.390;-99.256;2024-02-04T00:34:59;77397.34;;;24.34;20.87
20955;BME280;10636;19.390;-99.256;2024-02-04T00:37:27;77403.97;;;24.31;20.28
20955;BME280;10636;19.390;-99.256;2024-02-04T00:39:56;77411.22;;;24.29;20.69
20955;BME280;10636;19.390;-99.256;2024-02-04T00:42:26;77403.81;;;24.27;20.23
20955;BME280;10636;19.390;-99.256;2024-02-04T00:44:55;77411.19;;;24.26;20.72
20955;BME280;10636;19.390;-99.256;2024-02-04T00:47:23;77416.53;;;24.26;20.28
20955;BME280;10636;19.390;-99.256;2024-02-04T00:49:52;77420.47;;;24.23;20.28
20955;BME280;10636;19.390;-99.256;2024-02-04T00:52:20;77419.72;;;24.21;20.34
20955;BME280;10636;19.390;-99.256;2024-02-04T00:54:49;77421.72;;;24.20;20.75
20955;BME280;10636;19.390;-99.256;2024-02-04T00:57:17;77426.31;;;24.18;20.99
20955;BME280;10636;19.390;-99.256;2024-02-04T00:59:48;77424.94;;;24.17;21.02
20955;BME280;10636;19.390;-99.256;2024-02-04T01:02:17;77439.03;;;24.17;21.20
20955;BME280;10636;19.390;-99.256;2024-02-04T01:04:45;77441.69;;;24.17;21.29
20955;BME280;10636;19.390;-99.256;2024-02-04T01:07:14;77443.00;;;24.16;21.72
20955;BME280;10636;19.390;-99.256;2024-02-04T01:09:43;77442.88;;;24.12;21.07
20955;BME280;10636;19.390;-99.256;2024-02-04T01:12:11;77446.19;;;24.11;21.11
20955;BME280;10636;19.390;-99.256;2024-02-04T01:14:40;77452.91;;;24.12;21.14
20955;BME280;10636;19.390;-99.256;2024-02-04T01:17:10;77458.91;;;24.10;21.47
20955;BME280;10636;19.390;-99.256;2024-02-04T01:19:39;77448.09;;;24.08;21.03
20955;BME280;10636;19.390;-99.256;2024-02-04T01:22:07;77457.50;;;24.09;21.66
20955;BME280;10636;19.390;-99.256;2024-02-04T01:24:36;77460.88;;;24.10;21.58
20955;BME280;10636;19.390;-99.256;2024-02-04T01:27:04;77459.50;;;24.09;21.27
20955;BME280;10636;19.390;-99.256;2024-02-04T01:29:34;77460.13;;;24.07;22.02
20955;BME280;10636;19.390;-99.256;2024-02-04T01:32:02;77464.13;;;24.06;21.74
20955;BME280;10636;19.390;-99.256;2024-02-04T01:34:33;77468.09;;;24.05;21.79
20955;BME280;10636;19.390;-99.256;2024-02-04T01:37:01;77474.06;;;24.04;21.34
20955;BME280;10636;19.390;-99.256;2024-02-04T01:39:30;77475.38;;;24.03;21.74
20955;BME280;10636;19.390;-99.256;2024-02-04T01:41:58;77492.75;;;24.02;21.80
20955;BME280;10636;19.390;-99.256;2024-02-04T01:44:27;77489.31;;;23.99;22.17
20955;BME280;10636;19.390;-99.256;2024-02-04T01:46:56;77498.66;;;23.98;21.63
20955;BME280;10636;19.390;-99.256;2024-02-04T01:49:24;77492.63;;;23.97;22.21
20955;BME280;10636;19.390;-99.256;2024-02-04T01:51:55;77510.69;;;23.97;21.89
20955;BME280;10636;19.390;-99.256;2024-02-04T01:54:25;77497.22;;;23.95;22.45
20955;BME280;10636;19.390;-99.256;2024-02-04T01:56:55;77507.25;;;23.94;22.78
20955;BME280;10636;19.390;-99.256;2024-02-04T01:59:27;77511.84;;;23.92;22.81
20955;BME280;10636;19.390;-99.256;2024-02-04T02:01:57;77513.22;;;23.93;21.94
20955;BME280;10636;19.390;-99.256;2024-02-04T02:04:27;77518.56;;;23.93;22.09
20955;BME280;10636;19.390;-99.256;2024-02-04T02:06:57;77515.91;;;23.93;22.46
20955;BME280;10636;19.390;-99.256;2024-02-04T02:09:27;77530.59;;;23.92;22.46
20955;BME280;10636;19.390;-99.256;2024-02-04T02:12:02;77533.28;;;23.92;22.29
20955;BME280;10636;19.390;-99.256;2024-02-04T02:14:34;77536.59;;;23.90;22.35
20955;BME280;10636;19.390;-99.256;2024-02-04T02:17:07;77535.91;;;23.90;22.63
20955;BME280;10636;19.390;-99.256;2024-02-04T02:19:47;77533.81;;;23.88;23.19
20955;BME280;10636;19.390;-99.256;2024-02-04T02:22:28;77533.75;;;23.86;22.92
20955;BME280;10636;19.390;-99.256;2024-02-04T02:24:58;77545.16;;;23.87;22.92
20955;BME280;10636;19.390;-99.256;2024-02-04T02:27:27;77545.16;;;23.87;22.72
20955;BME280;10636;19.390;-99.256;2024-02-04T02:29:55;77549.19;;;23.88;23.16
20955;BME280;10636;19.390;-99.256;2024-02-04T02:32:24;77550.59;;;23.89;22.79
20955;BME280;10636;19.390;-99.256;2024-02-04T02:34:52;77555.25;;;23.88;23.33
20955;BME280;10636;19.390;-99.256;2024-02-04T02:37:29;77539.81;;;23.87;23.46
20955;BME280;10636;19.390;-99.256;2024-02-04T02:40:08;77559.91;;;23.88;22.81
20955;BME280;10636;19.390;-99.256;2024-02-04T02:42:39;77553.19;;;23.87;22.99
20955;BME280;10636;19.390;-99.256;2024-02-04T02:45:12;77551.81;;;23.86;23.60
20955;BME280;10636;19.390;-99.256;2024-02-04T02:47:41;77545.78;;;23.85;23.03
20955;BME280;10636;19.390;-99.256;2024-02-04T02:50:11;77559.16;;;23.85;23.38
20955;BME280;10636;19.390;-99.256;2024-02-04T02:52:40;77555.81;;;23.85;22.80
20955;BME280;10636;19.390;-99.256;2024-02-04T02:55:10;77548.38;;;23.83;23.79
20955;BME280;10636;19.390;-99.256;2024-02-04T02:57:38;77550.38;;;23.83;23.03
20955;BME280;10636;19.390;-99.256;2024-02-04T03:00:08;77557.13;;;23.84;23.11
20955;BME280;10636;19.390;-99.256;2024-02-04T03:02:36;77558.41;;;23.83;23.82
20955;BME280;10636;19.390;-99.256;2024-02-04T03:05:05;77551.69;;;23.82;23.18
20955;BME280;10636;19.390;-99.256;2024-02-04T03:07:34;77568.44;;;23.82;23.56
20955;BME280;10636;19.390;-99.256;2024-02-04T03:10:03;77559.66;;;23.80;23.54
20955;BME280;10636;19.390;-99.256;2024-02-04T03:12:33;77558.28;;;23.79;23.34
20955;BME280;10636;19.390;-99.256;2024-02-04T03:15:02;77558.34;;;23.81;23.79
20955;BME280;10636;19.390;-99.256;2024-02-04T03:17:30;77556.88;;;23.78;23.95
20955;BME280;10636;19.390;-99.256;2024-02-04T03:19:59;77552.94;;;23.79;24.07
20955;BME280;10636;19.390;-99.256;2024-02-04T03:22:28;77551.53;;;23.78;23.63
20955;BME280;10636;19.390;-99.256;2024-02-04T03:24:57;77559.66;;;23.80;23.40
20955;BME280;10636;19.390;-99.256;2024-02-04T03:27:25;77552.25;;;23.78;24.03
20955;BME280;10636;19.390;-99.256;2024-02-04T03:29:55;77552.84;;;23.77;23.30
20955;BME280;10636;19.390;-99.256;2024-02-04T03:32:24;77554.16;;;23.76;23.45
20955;BME280;10636;19.390;-99.256;2024-02-04T03:34:52;77557.50;;;23.76;24.10
20955;BME280;10636;19.390;-99.256;2024-02-04T03:37:21;77554.78;;;23.74;23.53
20955;BME280;10636;19.390;-99.256;2024-02-04T03:39:49;77554.78;;;23.74;23.49
20955;BME280;10636;19.390;-99.256;2024-02-04T03:42:17;77554.00;;;23.71;23.94
20955;BME280;10636;19.390;-99.256;2024-02-04T03:44:47;77560.66;;;23.70;23.38
20955;BME280;10636;19.390;-99.256;2024-02-04T03:47:17;77561.34;;;23.71;23.87
20955;BME280;10636;19.390;-99.256;2024-02-04T03:49:45;77565.34;;;23.70;23.70
20955;BME280;10636;19.390;-99.256;2024-02-04T03:52:15;77566.00;;;23.70;23.32
20955;BME280;10636;19.390;-99.256;2024-02-04T03:54:46;77568.63;;;23.68;24.08
20955;BME280;10636;19.390;-99.256;2024-02-04T03:57:14;77567.22;;;23.67;24.10
20955;BME280;10636;19.390;-99.256;2024-02-04T03:59:45;77566.50;;;23.65;24.06
20955;BME280;10636;19.390;-99.256;2024-02-04T04:02:14;77559.75;;;23.64;23.77
20955;BME280;10636;19.390;-99.256;2024-02-04T04:04:44;77569.78;;;23.63;23.07
20955;BME280;10636;19.390;-99.256;2024-02-04T04:07:14;77561.66;;;23.61;23.90
20955;BME280;10636;19.390;-99.256;2024-02-04T04:09:42;77558.91;;;23.59;23.76
20955;BME280;10636;19.390;-99.256;2024-02-04T04:12:11;77560.28;;;23.60;22.89
20955;BME280;10636;19.390;-99.256;2024-02-04T04:14:39;77564.25;;;23.59;23.74
20955;BME280;10636;19.390;-99.256;2024-02-04T04:17:08;77564.25;;;23.59;23.54
20955;BME280;10636;19.390;-99.256;2024-02-04T04:19:36;77560.81;;;23.57;23.00
20955;BME280;10636;19.390;-99.256;2024-02-04T04:22:08;77563.44;;;23.55;23.27
20955;BME280;10636;19.390;-99.256;2024-02-04T04:24:38;77562.75;;;23.54;23.49
20955;BME280;10636;19.390;-99.256;2024-02-04T04:27:09;77557.91;;;23.51;23.37
20955;BME280;10636;19.390;-99.256;2024-02-04T04:29:37;77558.00;;;23.53;22.71
20955;BME280;10636;19.390;-99.256;2024-02-04T04:32:07;77570.72;;;23.52;23.43
20955;BME280;10636;19.390;-99.256;2024-02-04T04:34:35;77565.25;;;23.50;22.88
20955;BME280;10636;19.390;-99.256;2024-02-04T04:37:04;77562.53;;;23.48;23.23
20955;BME280;10636;19.390;-99.256;2024-02-04T04:39:34;77551.72;;;23.46;22.77
20955;BME280;10636;19.390;-99.256;2024-02-04T04:42:03;77544.72;;;23.37;22.66
20955;BME280;10636;19.390;-99.256;2024-02-04T04:44:32;77566.97;;;23.41;23.03
20955;BME280;10636;19.390;-99.256;2024-02-04T04:47:00;77566.22;;;23.39;23.19
20955;BME280;10636;19.390;-99.256;2024-02-04T04:49:29;77561.47;;;23.37;22.92
20955;BME280;10636;19.390;-99.256;2024-02-04T04:51:57;77564.06;;;23.35;22.80
20955;BME280;10636;19.390;-99.256;2024-02-04T04:54:27;77558.59;;;23.31;23.29
20955;BME280;10636;19.390;-99.256;2024-02-04T04:56:58;77564.00;;;23.33;23.05
20955;BME280;10636;19.390;-99.256;2024-02-04T04:59:26;77563.94;;;23.31;23.62
20955;BME280;10636;19.390;-99.256;2024-02-04T05:01:55;77557.91;;;23.31;23.13
20955;BME280;10636;19.390;-99.256;2024-02-04T05:04:24;77571.19;;;23.29;23.04
20955;BME280;10636;19.390;-99.256;2024-02-04T05:06:52;77557.75;;;23.27;22.94
20955;BME280;10636;19.390;-99.256;2024-02-04T05:09:23;77569.75;;;23.26;22.85
20955;BME280;10636;19.390;-99.256;2024-02-04T05:11:51;77561.72;;;23.26;23.51
20955;BME280;10636;19.390;-99.256;2024-02-04T05:14:22;77558.28;;;23.23;22.84
20955;BME280;10636;19.390;-99.256;2024-02-04T05:16:51;77562.94;;;23.22;22.91
20955;BME280;10636;19.390;-99.256;2024-02-04T05:19:19;77563.47;;;23.19;22.56
20955;BME280;10636;19.390;-99.256;2024-02-04T05:21:48;77571.50;;;23.19;22.98
20955;BME280;10636;19.390;-99.256;2024-02-04T05:24:17;77566.78;;;23.17;23.57
20955;BME280;10636;19.390;-99.256;2024-02-04T05:26:45;77567.38;;;23.16;22.48
20955;BME280;10636;19.390;-99.256;2024-02-04T05:29:14;77567.97;;;23.14;22.62
20955;BME280;10636;19.390;-99.256;2024-02-04T05:31:44;77567.97;;;23.14;23.36
20955;BME280;10636;19.390;-99.256;2024-02-04T05:34:13;77560.56;;;23.13;22.89
20955;BME280;10636;19.390;-99.256;2024-02-04T05:36:41;77569.22;;;23.11;23.45
20955;BME280;10636;19.390;-99.256;2024-02-04T05:39:10;77565.88;;;23.11;23.54
20955;BME280;10636;19.390;-99.256;2024-02-04T05:41:40;77566.47;;;23.09;23.05
20955;BME280;10636;19.390;-99.256;2024-02-04T05:44:09;77560.41;;;23.09;23.62
20955;BME280;10636;19.390;-99.256;2024-02-04T05:46:38;77562.34;;;23.06;23.45
20955;BME280;10636;19.390;-99.256;2024-02-04T05:49:10;77572.94;;;23.04;23.56
20955;BME280;10636;19.390;-99.256;2024-02-04T05:51:40;77572.28;;;23.04;23.03
20955;BME280;10636;19.390;-99.256;2024-02-04T05:54:09;77568.16;;;23.01;23.21
20955;BME280;10636;19.390;-99.256;2024-02-04T05:56:37;77559.53;;;23.02;23.57
20955;BME280;10636;19.390;-99.256;2024-02-04T05:59:06;77558.78;;;23.00;23.43
20955;BME280;10636;19.390;-99.256;2024-02-04T06:01:34;77559.34;;;22.98;23.22
20955;BME280;10636;19.390;-99.256;2024-02-04T06:04:03;77559.34;;;22.98;22.88
20955;BME280;10636;19.390;-99.256;2024-02-04T06:06:33;77555.31;;;22.97;23.77
20955;BME280;10636;19.390;-99.256;2024-02-04T06:09:02;77562.66;;;22.96;23.76
20955;BME280;10636;19.390;-99.256;2024-02-04T06:11:31;77571.34;;;22.97;23.82
20955;BME280;10636;19.390;-99.256;2024-02-04T06:13:59;77561.97;;;22.96;23.73
20955;BME280;10636;19.390;-99.256;2024-02-04T06:16:28;77551.22;;;22.94;23.54
20955;BME280;10636;19.390;-99.256;2024-02-04T06:18:57;77551.22;;;22.94;23.09
20955;BME280;10636;19.390;-99.256;2024-02-04T06:21:28;77552.41;;;22.91;23.58
20955;BME280;10636;19.390;-99.256;2024-02-04T06:23:59;77557.84;;;22.93;23.04
20955;BME280;10636;19.390;-99.256;2024-02-04T06:26:28;77554.47;;;22.92;23.76
20955;BME280;10636;19.390;-99.256;2024-02-04T06:28:57;77546.38;;;22.90;23.58
20955;BME280;10636;19.390;-99.256;2024-02-04T06:31:32;77564.41;;;22.90;23.29
20955;BME280;10636;19.390;-99.256;2024-02-04T06:34:00;77565.00;;;22.88;23.84
20955;BME280;10636;19.390;-99.256;2024-02-04T06:36:29;77562.94;;;22.87;23.46
20955;BME280;10636;19.390;-99.256;2024-02-04T06:38:59;77562.88;;;22.85;24.15
20955;BME280;10636;19.390;-99.256;2024-02-04T06:41:28;77552.06;;;22.83;23.62
20955;BME280;10636;19.390;-99.256;2024-02-04T06:43:56;77565.44;;;22.83;23.71
20955;BME280;10636;19.390;-99.256;2024-02-04T06:46:25;77564.00;;;22.80;23.82
20955;BME280;10636;19.390;-99.256;2024-02-04T06:48:54;77559.34;;;22.80;23.47
20955;BME280;10636;19.390;-99.256;2024-02-04T06:51:23;77564.00;;;22.80;23.68
20955;BME280;10636;19.390;-99.256;2024-02-04T06:53:51;77558.66;;;22.80;23.32
20955;BME280;10636;19.390;-99.256;2024-02-04T06:56:22;77551.94;;;22.79;23.49
20955;BME280;10636;19.390;-99.256;2024-02-04T06:58:50;77561.84;;;22.76;23.91
20955;BME280;10636;19.390;-99.256;2024-02-04T07:01:19;77562.53;;;22.77;24.00
20955;BME280;10636;19.390;-99.256;2024-02-04T07:03:47;77565.06;;;22.73;23.65
20955;BME280;10636;19.390;-99.256;2024-02-04T07:06:16;77559.03;;;22.72;23.94
20955;BME280;10636;19.390;-99.256;2024-02-04T07:08:45;77555.59;;;22.69;23.53
20955;BME280;10636;19.390;-99.256;2024-02-04T07:11:14;77547.50;;;22.67;23.76
20955;BME280;10636;19.390;-99.256;2024-02-04T07:13:44;77551.47;;;22.66;23.70
20955;BME280;10636;19.390;-99.256;2024-02-04T07:16:13;77556.81;;;22.66;23.92
20955;BME280;10636;19.390;-99.256;2024-02-04T07:18:42;77561.41;;;22.64;23.55
20955;BME280;10636;19.390;-99.256;2024-02-04T07:21:11;77557.34;;;22.63;23.37
20955;BME280;10636;19.390;-99.256;2024-02-04T07:23:39;77561.31;;;22.62;24.31
20955;BME280;10636;19.390;-99.256;2024-02-04T07:26:08;77568.56;;;22.59;23.95
20955;BME280;10636;19.390;-99.256;2024-02-04T07:28:37;77573.91;;;22.59;24.22
20955;BME280;10636;19.390;-99.256;2024-02-04T07:31:07;77565.84;;;22.57;24.04
20955;BME280;10636;19.390;-99.256;2024-02-04T07:33:36;77572.38;;;22.54;23.59
20955;BME280;10636;19.390;-99.256;2024-02-04T07:36:06;77578.94;;;22.51;24.18
20955;BME280;10636;19.390;-99.256;2024-02-04T07:38:34;77568.25;;;22.51;23.67
20955;BME280;10636;19.390;-99.256;2024-02-04T07:41:04;77571.53;;;22.50;23.82
20955;BME280;10636;19.390;-99.256;2024-02-04T07:43:33;77576.19;;;22.49;24.20
20955;BME280;10636;19.390;-99.256;2024-02-04T07:46:02;77582.91;;;22.50;24.48
20955;BME280;10636;19.390;-99.256;2024-02-04T07:48:33;77574.91;;;22.50;23.75
20955;BME280;10636;19.390;-99.256;2024-02-04T07:51:04;77573.44;;;22.47;23.69
20955;BME280;10636;19.390;-99.256;2024-02-04T07:53:32;77577.41;;;22.46;23.88
20955;BME280;10636;19.390;-99.256;2024-02-04T07:56:02;77577.41;;;22.46;23.95
20955;BME280;10636;19.390;-99.256;2024-02-04T07:58:33;77573.44;;;22.47;24.17
20955;BME280;10636;19.390;-99.256;2024-02-04T08:01:01;77579.38;;;22.45;24.03
20955;BME280;10636;19.390;-99.256;2024-02-04T08:03:33;77586.72;;;22.45;24.42
20955;BME280;10636;19.390;-99.256;2024-02-04T08:06:02;77591.38;;;22.44;24.11
20955;BME280;10636;19.390;-99.256;2024-02-04T08:08:30;77582.59;;;22.42;24.34
20955;BME280;10636;19.390;-99.256;2024-02-04T08:10:59;77587.16;;;22.39;24.25
20955;BME280;10636;19.390;-99.256;2024-02-04T08:13:27;77587.09;;;22.37;23.83
20955;BME280;10636;19.390;-99.256;2024-02-04T08:15:56;77585.13;;;22.38;23.91
20955;BME280;10636;19.390;-99.256;2024-02-04T08:18:24;77582.44;;;22.38;23.89
20955;BME280;10636;19.390;-99.256;2024-02-04T08:20:55;77589.09;;;22.37;23.78
20955;BME280;10636;19.390;-99.256;2024-02-04T08:23:23;77585.03;;;22.36;24.13
20955;BME280;10636;19.390;-99.256;2024-02-04T08:25:52;77585.03;;;22.36;24.15
20955;BME280;10636;19.390;-99.256;2024-02-04T08:28:20;77576.94;;;22.34;23.95
20955;BME280;10636;19.390;-99.256;2024-02-04T08:30:50;77581.59;;;22.33;24.00
20955;BME280;10636;19.390;-99.256;2024-02-04T08:33:19;77587.53;;;22.32;23.95
20955;BME280;10636;19.390;-99.256;2024-02-04T08:35:48;77588.13;;;22.30;24.43
20955;BME280;10636;19.390;-99.256;2024-02-04T08:38:18;77578.06;;;22.29;24.78
20955;BME280;10636;19.390;-99.256;2024-02-04T08:40:47;77576.75;;;22.30;24.41
20955;BME280;10636;19.390;-99.256;2024-02-04T08:43:16;77571.34;;;22.28;23.93
20955;BME280;10636;19.390;-99.256;2024-02-04T08:45:44;77564.03;;;22.28;24.53
20955;BME280;10636;19.390;-99.256;2024-02-04T08:48:13;77564.03;;;22.28;24.11
20955;BME280;10636;19.390;-99.256;2024-02-04T08:50:42;77563.34;;;22.28;24.35
20955;BME280;10636;19.390;-99.256;2024-02-04T08:53:10;77561.28;;;22.26;24.54
20955;BME280;10636;19.390;-99.256;2024-02-04T08:55:43;77553.28;;;22.26;24.20
20955;BME280;10636;19.390;-99.256;2024-02-04T08:58:13;77553.16;;;22.24;24.37
20955;BME280;10636;19.390;-99.256;2024-02-04T09:00:42;77552.47;;;22.24;24.55
20955;BME280;10636;19.390;-99.256;2024-02-04T09:03:13;77551.13;;;22.23;24.84
20955;BME280;10636;19.390;-99.256;2024-02-04T09:05:41;77549.06;;;22.21;24.21
20955;BME280;10636;19.390;-99.256;2024-02-04T09:08:10;77558.97;;;22.18;24.55
20955;BME280;10636;19.390;-99.256;2024-02-04T09:10:40;77556.28;;;22.18;24.37
20955;BME280;10636;19.390;-99.256;2024-02-04T09:13:09;77548.22;;;22.16;25.01
20955;BME280;10636;19.390;-99.256;2024-02-04T09:15:37;77551.56;;;22.17;24.55
20955;BME280;10636;19.390;-99.256;2024-02-04T09:18:06;77545.53;;;22.16;24.88
20955;BME280;10636;19.390;-99.256;2024-02-04T09:20:35;77546.91;;;22.17;24.35
20955;BME280;10636;19.390;-99.256;2024-02-04T09:23:03;77547.59;;;22.18;24.22
20955;BME280;10636;19.390;-99.256;2024-02-04T09:25:33;77546.22;;;22.17;25.18
20955;BME280;10636;19.390;-99.256;2024-02-04T09:28:06;77542.88;;;22.16;25.32
20955;BME280;10636;19.390;-99.256;2024-02-04T09:30:35;77541.50;;;22.15;25.26
20955;BME280;10636;19.390;-99.256;2024-02-04T09:33:04;77541.41;;;22.13;24.68
20955;BME280;10636;19.390;-99.256;2024-02-04T09:35:32;77542.69;;;22.12;25.00
20955;BME280;10636;19.390;-99.256;2024-02-04T09:38:01;77542.09;;;22.14;25.32
20955;BME280;10636;19.390;-99.256;2024-02-04T09:40:30;77541.31;;;22.11;25.21
20955;BME280;10636;19.390;-99.256;2024-02-04T09:42:58;77545.84;;;22.09;24.68
20955;BME280;10636;19.390;-99.256;2024-02-04T09:45:29;77544.59;;;22.10;25.17
20955;BME280;10636;19.390;-99.256;2024-02-04T09:47:58;77538.47;;;22.07;25.21
20955;BME280;10636;19.390;-99.256;2024-02-04T09:50:29;77546.47;;;22.07;25.50
20955;BME280;10636;19.390;-99.256;2024-02-04T09:52:59;77543.13;;;22.07;25.01
20955;BME280;10636;19.390;-99.256;2024-02-04T09:55:30;77535.78;;;22.07;25.28
20955;BME280;10636;19.390;-99.256;2024-02-04T09:57:59;77531.81;;;22.08;24.79
20955;BME280;10636;19.390;-99.256;2024-02-04T10:00:31;77536.47;;;22.08;24.99
20955;BME280;10636;19.390;-99.256;2024-02-04T10:03:02;77531.81;;;22.08;25.27
20955;BME280;10636;19.390;-99.256;2024-02-04T10:05:32;77526.47;;;22.08;24.95
20955;BME280;10636;19.390;-99.256;2024-02-04T10:08:01;77525.13;;;22.07;24.64
20955;BME280;10636;19.390;-99.256;2024-02-04T10:10:29;77533.75;;;22.06;25.15
20955;BME280;10636;19.390;-99.256;2024-02-04T10:12:58;77539.09;;;22.06;25.05
20955;BME280;10636;19.390;-99.256;2024-02-04T10:15:32;77537.03;;;22.04;25.64
20955;BME280;10636;19.390;-99.256;2024-02-04T10:18:03;77537.03;;;22.04;25.57
20955;BME280;10636;19.390;-99.256;2024-02-04T10:20:32;77538.97;;;22.04;25.36
20955;BME280;10636;19.390;-99.256;2024-02-04T10:23:01;77547.72;;;22.04;25.62
20955;BME280;10636;19.390;-99.256;2024-02-04T10:25:30;77547.59;;;22.02;25.00
20955;BME280;10636;19.390;-99.256;2024-02-04T10:27:58;77548.91;;;22.01;24.86
20955;BME280;10636;19.390;-99.256;2024-02-04T10:30:27;77540.13;;;21.99;25.62
20955;BME280;10636;19.390;-99.256;2024-02-04T10:33:00;77543.41;;;21.97;25.48
20955;BME280;10636;19.390;-99.256;2024-02-04T10:35:28;77561.41;;;21.97;24.79
20955;BME280;10636;19.390;-99.256;2024-02-04T10:37:57;77551.34;;;21.95;25.82
20955;BME280;10636;19.390;-99.256;2024-02-04T10:40:26;77547.38;;;21.96;25.17
20955;BME280;10636;19.390;-99.256;2024-02-04T10:42:58;77556.06;;;21.97;25.64
20955;BME280;10636;19.390;-99.256;2024-02-04T10:45:30;77556.69;;;21.95;25.64
20955;BME280;10636;19.390;-99.256;2024-02-04T10:48:02;77551.25;;;21.93;25.18
20955;BME280;10636;19.390;-99.256;2024-02-04T10:50:34;77562.53;;;21.91;25.50
20955;BME280;10636;19.390;-99.256;2024-02-04T10:53:05;77556.50;;;21.91;25.32
20955;BME280;10636;19.390;-99.256;2024-02-04T10:55:39;77563.16;;;21.90;25.69
20955;BME280;10636;19.390;-99.256;2024-02-04T10:58:10;77559.00;;;21.87;25.59
20955;BME280;10636;19.390;-99.256;2024-02-04T11:00:40;77565.66;;;21.86;25.39
20955;BME280;10636;19.390;-99.256;2024-02-04T11:03:11;77572.97;;;21.85;25.37
20955;BME280;10636;19.390;-99.256;2024-02-04T11:05:42;77568.13;;;21.82;25.23
20955;BME280;10636;19.390;-99.256;2024-02-04T11:08:12;77572.72;;;21.79;24.55
20955;BME280;10636;19.390;-99.256;2024-02-04T11:10:41;77577.28;;;21.77;25.22
20955;BME280;10636;19.390;-99.256;2024-02-04T11:13:10;77561.19;;;21.75;24.73
20955;BME280;10636;19.390;-99.256;2024-02-04T11:15:41;77575.81;;;21.74;24.63
20955;BME280;10636;19.390;-99.256;2024-02-04T11:18:30;77569.13;;;21.73;25.06
20955;BME280;10636;19.390;-99.256;2024-02-04T11:21:23;77569.03;;;21.71;24.59
20955;BME280;10636;19.390;-99.256;2024-02-04T11:24:08;77568.94;;;21.69;25.19
20955;BME280;10636;19.390;-99.256;2024-02-04T11:26:40;77565.59;;;21.68;25.37
20955;BME280;10636;19.390;-99.256;2024-02-04T11:29:17;77572.91;;;21.67;25.00
20955;BME280;10636;19.390;-99.256;2024-02-04T11:31:47;77576.84;;;21.66;25.01
20955;BME280;10636;19.390;-99.256;2024-02-04T11:34:23;77584.78;;;21.64;24.94
20955;BME280;10636;19.390;-99.256;2024-02-04T11:36:53;77573.34;;;21.62;24.80
20955;BME280;10636;19.390;-99.256;2024-02-04T11:39:22;77579.28;;;21.60;24.69
20955;BME280;10636;19.390;-99.256;2024-02-04T11:41:51;77583.91;;;21.60;25.20
20955;BME280;10636;19.390;-99.256;2024-02-04T11:44:23;77588.56;;;21.59;25.01
20955;BME280;10636;19.390;-99.256;2024-02-04T11:46:54;77597.88;;;21.58;25.00
20955;BME280;10636;19.390;-99.256;2024-02-04T11:49:26;77587.09;;;21.56;24.79
20955;BME280;10636;19.390;-99.256;2024-02-04T11:51:55;77586.50;;;21.58;25.15
20955;BME280;10636;19.390;-99.256;2024-02-04T11:54:25;77589.78;;;21.56;24.58
20955;BME280;10636;19.390;-99.256;2024-02-04T11:56:54;77599.06;;;21.55;25.27
20955;BME280;10636;19.390;-99.256;2024-02-04T11:59:24;77603.03;;;21.54;24.86
20955;BME280;10636;19.390;-99.256;2024-02-04T12:01:55;77615.00;;;21.53;25.08
20955;BME280;10636;19.390;-99.256;2024-02-04T12:04:28;77617.66;;;21.53;24.87
20955;BME280;10636;19.390;-99.256;2024-02-04T12:06:57;77614.91;;;21.51;24.71
20955;BME280;10636;19.390;-99.256;2024-02-04T12:09:26;77612.94;;;21.52;24.84
20955;BME280;10636;19.390;-99.256;2024-02-04T12:11:56;77621.47;;;21.48;24.21
20955;BME280;10636;19.390;-99.256;2024-02-04T12:14:25;77613.38;;;21.46;25.12
20955;BME280;10636;19.390;-99.256;2024-02-04T12:16:54;77626.63;;;21.44;24.94
20955;BME280;10636;19.390;-99.256;2024-02-04T12:19:25;77630.56;;;21.43;24.38
20955;BME280;10636;19.390;-99.256;2024-02-04T12:21:54;77615.88;;;21.42;24.80
20955;BME280;10636;19.390;-99.256;2024-02-04T12:24:23;77633.84;;;21.42;24.98
20955;BME280;10636;19.390;-99.256;2024-02-04T12:26:51;77653.09;;;21.40;24.31
20955;BME280;10636;19.390;-99.256;2024-02-04T12:29:20;77653.78;;;21.40;24.49
20955;BME280;10636;19.390;-99.256;2024-02-04T12:31:59;77647.09;;;21.39;24.45
20955;BME280;10636;19.390;-99.256;2024-02-04T12:34:29;77641.06;;;21.39;24.98
20955;BME280;10636;19.390;-99.256;2024-02-04T12:36:59;77657.06;;;21.39;24.97
20955;BME280;10636;19.390;-99.256;2024-02-04T12:39:27;77654.31;;;21.37;24.81
20955;BME280;10636;19.390;-99.256;2024-02-04T12:41:59;77658.97;;;21.36;24.46
20955;BME280;10636;19.390;-99.256;2024-02-04T12:44:28;77673.00;;;21.37;24.66
20955;BME280;10636;19.390;-99.256;2024-02-04T12:46:56;77667.56;;;21.35;24.94
20955;BME280;10636;19.390;-99.256;2024-02-04T12:49:26;77668.94;;;21.36;24.46
20955;BME280;10636;19.390;-99.256;2024-02-04T12:52:06;77676.84;;;21.34;24.76